createdAt,value
2022-09-23T00:01:08.960Z,100.00
2022-09-23T00:03:38.443Z,100.00
2022-09-23T00:06:08.178Z,100.00
2022-09-23T00:08:35.280Z,100.00
2022-09-23T00:11:15.123Z,100.00
2022-09-23T00:13:44.508Z,100.00
2022-09-23T00:16:14.331Z,100.00
2022-09-23T00:18:42.029Z,100.00
2022-09-23T00:21:12.317Z,100.00
2022-09-23T00:23:40.607Z,100.00
2022-09-23T00:26:08.945Z,100.00
2022-09-23T00:28:36.516Z,100.00
2022-09-23T00:31:12.632Z,100.00
2022-09-23T00:33:40.805Z,100.00
2022-09-23T00:36:11.986Z,100.00
2022-09-23T00:38:39.269Z,100.00
2022-09-23T00:41:06.464Z,100.00
2022-09-23T00:43:53.792Z,100.00
2022-09-23T00:46:43.663Z,100.00
2022-09-23T00:49:21.873Z,100.00
2022-09-23T00:51:55.288Z,100.00
2022-09-23T00:54:26.327Z,100.00
2022-09-23T00:56:54.238Z,100.00
2022-09-23T00:59:21.806Z,100.00
2022-09-23T01:01:50.036Z,100.00
2022-09-23T01:04:16.693Z,100.00
2022-09-23T01:06:43.248Z,100.00
2022-09-23T01:09:09.852Z,100.00
2022-09-23T01:11:43.901Z,100.00
2022-09-23T01:14:16.721Z,100.00
2022-09-23T01:16:45.895Z,100.00
2022-09-23T01:19:27.730Z,100.00
2022-09-23T01:22:01.359Z,100.00
2022-09-23T01:24:46.725Z,100.00
2022-09-23T01:27:20.440Z,100.00
2022-09-23T01:30:05.771Z,100.00
2022-09-23T01:32:46.967Z,100.00
2022-09-23T01:35:25.943Z,100.00
2022-09-23T01:38:06.553Z,100.00
2022-09-23T01:41:08.916Z,100.00
2022-09-23T01:44:05.720Z,100.00
2022-09-23T01:46:48.360Z,100.00
2022-09-23T01:49:33.180Z,100.00
2022-09-23T01:52:07.812Z,100.00
2022-09-23T01:54:42.396Z,100.00
2022-09-23T01:57:22.739Z,100.00
2022-09-23T02:00:08.909Z,100.00
2022-09-23T02:02:49.926Z,100.00
2022-09-23T02:05:26.047Z,100.00
2022-09-23T02:08:03.258Z,100.00
2022-09-23T02:10:37.470Z,100.00
2022-09-23T02:13:09.932Z,100.00
2022-09-23T02:15:46.861Z,100.00
2022-09-23T02:18:18.524Z,100.00
2022-09-23T02:20:47.417Z,100.00
2022-09-23T02:23:27.885Z,100.00
2022-09-23T02:26:07.459Z,100.00
2022-09-23T02:28:52.499Z,100.00
2022-09-23T02:31:34.274Z,100.00
2022-09-23T02:34:24.126Z,100.00
2022-09-23T02:37:08.095Z,100.00
2022-09-23T02:39:51.693Z,100.00
2022-09-23T02:42:24.940Z,100.00
2022-09-23T02:44:51.615Z,100.00
2022-09-23T02:47:24.205Z,100.00
2022-09-23T02:49:50.809Z,100.00
2022-09-23T02:52:17.450Z,100.00
2022-09-23T02:54:44.344Z,100.00
2022-09-23T02:57:10.878Z,100.00
2022-09-23T02:59:38.492Z,100.00
2022-09-23T03:02:13.661Z,100.00
2022-09-23T03:05:03.915Z,100.00
2022-09-23T03:07:50.002Z,100.00
2022-09-23T03:10:25.776Z,100.00
2022-09-23T03:13:04.864Z,100.00
2022-09-23T03:15:53.584Z,100.00
2022-09-23T03:18:44.958Z,100.00
2022-09-23T03:21:17.395Z,100.00
2022-09-23T03:23:46.531Z,100.00
2022-09-23T03:26:20.182Z,100.00
2022-09-23T03:28:47.561Z,100.00
2022-09-23T03:31:16.291Z,100.00
2022-09-23T03:33:50.298Z,100.00
2022-09-23T03:36:40.165Z,100.00
2022-09-23T03:39:10.544Z,100.00
2022-09-23T03:41:49.330Z,100.00
2022-09-23T03:44:17.231Z,100.00
2022-09-23T03:46:49.959Z,100.00
2022-09-23T03:49:22.985Z,100.00
2022-09-23T03:51:50.037Z,100.00
2022-09-23T03:54:17.757Z,100.00
2022-09-23T03:56:44.243Z,100.00
2022-09-23T03:59:10.798Z,100.00
2022-09-23T04:01:37.307Z,100.00
2022-09-23T04:04:03.950Z,100.00
2022-09-23T04:06:30.570Z,100.00
2022-09-23T04:08:58.479Z,100.00
2022-09-23T04:11:25.028Z,100.00
2022-09-23T04:13:51.582Z,100.00
2022-09-23T04:16:18.214Z,100.00
2022-09-23T04:18:45.028Z,100.00
2022-09-23T04:21:11.707Z,100.00
2022-09-23T04:23:38.228Z,100.00
2022-09-23T04:26:05.775Z,100.00
2022-09-23T04:28:32.719Z,100.00
2022-09-23T04:30:59.402Z,100.00
2022-09-23T04:33:26.046Z,100.00
2022-09-23T04:35:52.881Z,100.00
2022-09-23T04:38:19.906Z,100.00
2022-09-23T04:40:46.764Z,100.00
2022-09-23T04:43:15.972Z,100.00
2022-09-23T04:45:43.778Z,100.00
2022-09-23T04:48:11.561Z,100.00
2022-09-23T04:50:38.330Z,100.00
2022-09-23T04:53:05.100Z,100.00
2022-09-23T04:55:32.088Z,100.00
2022-09-23T04:57:58.910Z,100.00
2022-09-23T05:00:28.604Z,100.00
2022-09-23T05:02:55.530Z,100.00
2022-09-23T05:05:23.699Z,100.00
2022-09-23T05:07:51.305Z,100.00
2022-09-23T05:10:17.942Z,100.00
2022-09-23T05:12:46.655Z,100.00
2022-09-23T05:15:15.215Z,100.00
2022-09-23T05:17:43.106Z,100.00
2022-09-23T05:20:11.132Z,100.00
2022-09-23T05:22:37.899Z,100.00
2022-09-23T05:25:04.732Z,100.00
2022-09-23T05:27:31.392Z,100.00
2022-09-23T05:29:58.006Z,100.00
2022-09-23T05:32:24.597Z,100.00
2022-09-23T05:34:51.159Z,100.00
2022-09-23T05:37:17.665Z,100.00
2022-09-23T05:39:44.570Z,100.00
2022-09-23T05:42:12.395Z,100.00
2022-09-23T05:44:39.357Z,100.00
2022-09-23T05:47:06.168Z,100.00
2022-09-23T05:49:55.179Z,100.00
2022-09-23T05:52:19.354Z,100.00
2022-09-23T05:54:46.089Z,100.00
2022-09-23T05:57:12.698Z,100.00
2022-09-23T05:59:39.813Z,100.00
2022-09-23T06:02:06.791Z,100.00
2022-09-23T06:04:33.440Z,100.00
2022-09-23T06:07:03.367Z,100.00
2022-09-23T06:09:35.545Z,100.00
2022-09-23T06:12:03.632Z,100.00
2022-09-23T06:14:30.376Z,100.00
2022-09-23T06:16:56.928Z,100.00
2022-09-23T06:19:23.573Z,100.00
2022-09-23T06:21:50.136Z,100.00
2022-09-23T06:24:20.405Z,100.00
2022-09-23T06:26:49.252Z,100.00
2022-09-23T06:29:16.254Z,100.00
2022-09-23T06:31:43.453Z,100.00
2022-09-23T06:34:13.383Z,100.00
2022-09-23T06:36:45.822Z,100.00
2022-09-23T06:39:16.799Z,100.00
2022-09-23T06:41:44.803Z,100.00
2022-09-23T06:44:11.657Z,100.00
2022-09-23T06:46:38.397Z,100.00
2022-09-23T06:49:04.970Z,100.00
2022-09-23T06:51:31.494Z,100.00
2022-09-23T06:53:58.207Z,100.00
2022-09-23T06:56:24.833Z,100.00
2022-09-23T06:58:52.622Z,100.00
2022-09-23T07:01:19.945Z,100.00
2022-09-23T07:03:48.430Z,100.00
2022-09-23T07:06:15.703Z,100.00
2022-09-23T07:08:44.922Z,100.00
2022-09-23T07:11:13.220Z,100.00
2022-09-23T07:13:41.273Z,100.00
2022-09-23T07:16:08.970Z,100.00
2022-09-23T07:18:37.342Z,100.00
2022-09-23T07:21:16.031Z,100.00
2022-09-23T07:23:44.298Z,100.00
2022-09-23T07:26:11.159Z,100.00
2022-09-23T07:28:38.743Z,100.00
2022-09-23T07:31:08.968Z,100.00
2022-09-23T07:33:36.856Z,100.00
2022-09-23T07:36:08.949Z,100.00
2022-09-23T07:38:37.425Z,100.00
2022-09-23T07:41:10.846Z,100.00
2022-09-23T07:43:38.678Z,100.00
2022-09-23T07:46:09.726Z,100.00
2022-09-23T07:48:37.458Z,100.00
2022-09-23T07:51:19.126Z,100.00
2022-09-23T07:53:51.307Z,100.00
2022-09-23T07:56:22.070Z,100.00
2022-09-23T07:59:03.726Z,100.00
2022-09-23T08:01:39.576Z,100.00
2022-09-23T08:04:10.876Z,100.00
2022-09-23T08:06:44.047Z,100.00
2022-09-23T08:09:11.300Z,100.00
2022-09-23T08:11:42.125Z,100.00
2022-09-23T08:14:13.926Z,100.00
2022-09-23T08:16:41.827Z,98.55
2022-09-23T08:19:08.908Z,98.39
2022-09-23T08:21:35.726Z,100.00
2022-09-23T08:24:02.563Z,100.00
2022-09-23T08:26:29.119Z,99.03
2022-09-23T08:28:56.531Z,97.59
2022-09-23T08:31:24.179Z,97.56
2022-09-23T08:33:55.760Z,97.23
2022-09-23T08:36:23.013Z,93.39
2022-09-23T08:38:49.556Z,91.54
2022-09-23T08:41:49.616Z,90.43
2022-09-23T08:44:37.991Z,88.74
2022-09-23T08:47:11.821Z,86.12
2022-09-23T08:49:44.499Z,86.23
2022-09-23T08:52:23.446Z,86.12
2022-09-23T08:54:55.124Z,87.20
2022-09-23T08:58:23.347Z,86.13
2022-09-23T09:00:47.556Z,86.67
2022-09-23T09:03:22.584Z,87.20
2022-09-23T09:05:54.458Z,88.04
2022-09-23T09:08:33.609Z,83.88
2022-09-23T09:11:00.960Z,83.58
2022-09-23T09:13:43.259Z,83.96
2022-09-23T09:16:36.351Z,82.67
2022-09-23T09:19:12.741Z,82.71
2022-09-23T09:21:42.624Z,86.42
2022-09-23T09:24:30.872Z,85.43
2022-09-23T09:26:57.466Z,83.53
2022-09-23T09:29:35.304Z,82.55
2022-09-23T09:32:19.107Z,83.24
2022-09-23T09:34:54.687Z,81.32
2022-09-23T09:37:37.426Z,81.98
2022-09-23T09:40:04.240Z,83.70
2022-09-23T09:42:39.947Z,82.79
2022-09-23T09:45:26.349Z,82.35
2022-09-23T09:48:15.031Z,84.52
2022-09-23T09:50:47.288Z,83.61
2022-09-23T09:53:29.552Z,82.57
2022-09-23T09:56:05.015Z,81.49
2022-09-23T09:58:44.355Z,79.63
2022-09-23T10:01:22.374Z,80.16
2022-09-23T10:03:56.946Z,79.28
2022-09-23T10:06:28.715Z,79.13
2022-09-23T10:09:04.676Z,76.31
2022-09-23T10:11:33.207Z,77.17
2022-09-23T10:14:00.383Z,74.44
2022-09-23T10:16:28.362Z,76.23
2022-09-23T10:18:57.011Z,75.76
2022-09-23T10:21:28.006Z,74.94
2022-09-23T10:23:58.631Z,72.06
2022-09-23T10:26:37.577Z,72.14
2022-09-23T10:29:23.183Z,72.60
2022-09-23T10:31:54.009Z,73.46
2022-09-23T10:34:27.474Z,73.56
2022-09-23T10:37:01.983Z,72.00
2022-09-23T10:39:47.494Z,73.24
2022-09-23T10:43:13.253Z,71.05
2022-09-23T10:45:59.661Z,70.59
2022-09-23T10:49:08.992Z,70.35
2022-09-23T10:52:19.734Z,70.34
2022-09-23T10:55:18.317Z,71.63
2022-09-23T10:57:45.116Z,72.75
2022-09-23T11:00:26.866Z,71.24
2022-09-23T11:03:12.487Z,70.10
2022-09-23T11:05:56.363Z,69.78
2022-09-23T11:08:36.462Z,71.89
2022-09-23T11:11:42.040Z,73.96
2022-09-23T11:14:20.783Z,73.07
2022-09-23T11:17:19.590Z,72.64
2022-09-23T11:20:26.317Z,74.82
2022-09-23T11:23:03.296Z,73.08
2022-09-23T11:25:58.095Z,72.49
2022-09-23T11:28:58.698Z,72.89
2022-09-23T11:31:40.558Z,72.67
2022-09-23T11:34:14.304Z,70.32
2022-09-23T11:36:52.379Z,70.30
2022-09-23T11:39:57.441Z,71.68
2022-09-23T11:42:32.922Z,70.28
2022-09-23T11:45:15.100Z,71.67
2022-09-23T11:47:57.111Z,70.17
2022-09-23T11:50:32.188Z,69.70
2022-09-23T11:53:09.227Z,70.56
2022-09-23T11:55:57.788Z,71.60
2022-09-23T11:58:32.251Z,71.93
2022-09-23T12:01:09.472Z,72.03
2022-09-23T12:03:44.711Z,71.79
2022-09-23T12:06:32.220Z,67.96
2022-09-23T12:09:12.750Z,65.33
2022-09-23T12:12:26.317Z,63.13
2022-09-23T12:15:21.131Z,62.71
2022-09-23T12:17:57.187Z,63.76
2022-09-23T12:20:35.825Z,64.63
2022-09-23T12:23:08.961Z,60.68
2022-09-23T12:25:50.142Z,60.01
2022-09-23T12:28:35.702Z,61.76
2022-09-23T12:31:04.892Z,61.00
2022-09-23T12:33:36.829Z,58.82
2022-09-23T12:36:08.650Z,59.06
2022-09-23T12:38:35.105Z,58.62
2022-09-23T12:41:08.985Z,59.21
2022-09-23T12:43:35.687Z,59.38
2022-09-23T12:46:25.733Z,59.49
2022-09-23T12:48:58.314Z,59.35
2022-09-23T12:51:26.907Z,58.26
2022-09-23T12:54:05.833Z,59.66
2022-09-23T12:56:38.962Z,60.75
2022-09-23T12:59:23.562Z,62.68
2022-09-23T13:01:50.290Z,60.83
2022-09-23T13:04:47.850Z,59.82
2022-09-23T13:07:23.169Z,60.22
2022-09-23T13:09:52.408Z,61.86
2022-09-23T13:12:29.612Z,63.35
2022-09-23T13:15:03.259Z,62.69
2022-09-23T13:17:37.332Z,62.07
2022-09-23T13:20:36.573Z,61.97
2022-09-23T13:23:06.072Z,61.70
2022-09-23T13:25:39.241Z,59.83
2022-09-23T13:28:19.447Z,59.50
2022-09-23T13:30:52.239Z,60.28
2022-09-23T13:33:39.019Z,60.33
2022-09-23T13:36:15.462Z,61.02
2022-09-23T13:38:42.195Z,62.31
2022-09-23T13:41:14.993Z,61.85
2022-09-23T13:44:03.515Z,61.72
2022-09-23T13:46:43.234Z,62.01
2022-09-23T13:49:24.472Z,61.30
2022-09-23T13:51:54.393Z,61.18
2022-09-23T13:54:49.106Z,60.12
2022-09-23T13:57:29.423Z,59.83
2022-09-23T14:00:16.484Z,60.90
2022-09-23T14:02:44.074Z,58.48
2022-09-23T14:05:14.187Z,59.73
2022-09-23T14:07:40.891Z,58.69
2022-09-23T14:10:08.248Z,58.70
2022-09-23T14:12:39.338Z,60.51
2022-09-23T14:15:07.226Z,61.11
2022-09-23T14:17:33.819Z,61.27
2022-09-23T14:20:01.115Z,60.85
2022-09-23T14:22:29.347Z,60.45
2022-09-23T14:24:57.492Z,61.14
2022-09-23T14:27:29.912Z,61.62
2022-09-23T14:29:57.284Z,63.41
2022-09-23T14:32:28.236Z,64.74
2022-09-23T14:35:00.960Z,64.31
2022-09-23T14:37:48.423Z,64.31
2022-09-23T14:40:25.490Z,64.57
2022-09-23T14:43:02.329Z,66.67
2022-09-23T14:45:36.376Z,65.49
2022-09-23T14:48:14.447Z,67.31
2022-09-23T14:50:48.485Z,66.34
2022-09-23T14:53:24.361Z,65.15
2022-09-23T14:55:57.439Z,66.07
2022-09-23T14:58:30.576Z,66.74
2022-09-23T15:01:01.335Z,66.00
2022-09-23T15:03:28.847Z,66.94
2022-09-23T15:06:05.132Z,68.80
2022-09-23T15:08:35.796Z,71.87
2022-09-23T15:11:08.353Z,70.89
2022-09-23T15:13:49.508Z,72.79
2022-09-23T15:16:24.281Z,74.07
2022-09-23T15:18:55.332Z,76.40
2022-09-23T15:21:23.332Z,75.98
2022-09-23T15:23:56.078Z,74.87
2022-09-23T15:26:25.794Z,74.00
2022-09-23T15:28:55.955Z,74.26
2022-09-23T15:31:26.650Z,75.00
2022-09-23T15:33:53.355Z,75.17
2022-09-23T15:36:21.458Z,75.11
2022-09-23T15:38:48.524Z,74.47
2022-09-23T15:41:17.169Z,73.83
2022-09-23T15:43:43.947Z,74.86
2022-09-23T15:46:25.453Z,74.11
2022-09-23T15:49:05.697Z,74.71
2022-09-23T15:51:32.354Z,78.27
2022-09-23T15:53:58.955Z,77.77
2022-09-23T15:56:27.262Z,77.66
2022-09-23T15:58:54.231Z,78.50
2022-09-23T16:01:24.118Z,80.05
2022-09-23T16:03:50.947Z,79.66
2022-09-23T16:06:18.021Z,83.49
2022-09-23T16:08:44.584Z,79.20
2022-09-23T16:11:27.002Z,80.00
2022-09-23T16:13:53.706Z,80.63
2022-09-23T16:16:28.449Z,82.64
2022-09-23T16:18:55.587Z,83.15
2022-09-23T16:21:25.694Z,84.05
2022-09-23T16:23:53.532Z,82.75
2022-09-23T16:26:22.087Z,86.78
2022-09-23T16:28:50.476Z,85.12
2022-09-23T16:31:17.909Z,84.67
2022-09-23T16:33:46.093Z,83.94
2022-09-23T16:36:21.861Z,86.47
2022-09-23T16:38:49.034Z,86.69
2022-09-23T16:41:15.887Z,90.64
2022-09-23T16:43:42.434Z,92.30
2022-09-23T16:46:12.427Z,92.50
2022-09-23T16:48:40.889Z,92.23
2022-09-23T16:51:13.304Z,94.40
2022-09-23T16:53:39.879Z,94.90
2022-09-23T16:56:10.965Z,95.63
2022-09-23T16:58:38.647Z,96.40
2022-09-23T17:01:25.998Z,97.59
2022-09-23T17:03:53.362Z,99.10
2022-09-23T17:06:20.366Z,98.64
2022-09-23T17:08:51.068Z,99.24
2022-09-23T17:11:17.920Z,99.55
2022-09-23T17:13:44.565Z,100.00
2022-09-23T17:16:21.399Z,100.00
2022-09-23T17:18:48.030Z,100.00
2022-09-23T17:21:14.667Z,100.00
2022-09-23T17:23:41.231Z,100.00
2022-09-23T17:26:10.020Z,100.00
2022-09-23T17:28:36.622Z,100.00
2022-09-23T17:31:04.796Z,100.00
2022-09-23T17:33:33.638Z,100.00
2022-09-23T17:36:00.311Z,100.00
2022-09-23T17:38:29.378Z,100.00
2022-09-23T17:40:57.676Z,100.00
2022-09-23T17:43:25.909Z,100.00
2022-09-23T17:45:54.636Z,100.00
2022-09-23T17:48:22.438Z,100.00
2022-09-23T17:51:02.139Z,100.00
2022-09-23T17:53:35.128Z,100.00
2022-09-23T17:56:04.706Z,100.00
2022-09-23T17:58:33.478Z,100.00
2022-09-23T18:01:01.108Z,100.00
2022-09-23T18:03:29.867Z,100.00
2022-09-23T18:06:09.978Z,100.00
2022-09-23T18:08:36.772Z,100.00
2022-09-23T18:11:15.311Z,100.00
2022-09-23T18:13:42.347Z,100.00
2022-09-23T18:16:09.065Z,100.00
2022-09-23T18:18:35.753Z,100.00
2022-09-23T18:21:04.279Z,100.00
2022-09-23T18:23:31.028Z,100.00
2022-09-23T18:25:57.700Z,100.00
2022-09-23T18:28:24.370Z,100.00
2022-09-23T18:30:55.030Z,100.00
2022-09-23T18:33:22.905Z,100.00
2022-09-23T18:35:52.409Z,100.00
2022-09-23T18:38:19.408Z,100.00
2022-09-23T18:40:51.034Z,100.00
2022-09-23T18:43:19.904Z,100.00
2022-09-23T18:45:58.294Z,100.00
2022-09-23T18:48:45.043Z,100.00
2022-09-23T18:51:13.834Z,100.00
2022-09-23T18:53:41.653Z,100.00
2022-09-23T18:56:10.720Z,100.00
2022-09-23T18:58:38.092Z,100.00
2022-09-23T19:01:07.252Z,100.00
2022-09-23T19:03:35.149Z,100.00
2022-09-23T19:06:09.349Z,100.00
2022-09-23T19:08:36.998Z,100.00
2022-09-23T19:11:06.505Z,100.00
2022-09-23T19:13:34.580Z,100.00
2022-09-23T19:16:22.923Z,100.00
2022-09-23T19:18:50.348Z,100.00
2022-09-23T19:21:20.393Z,100.00
2022-09-23T19:24:03.513Z,100.00
2022-09-23T19:26:35.333Z,100.00
2022-09-23T19:29:04.388Z,100.00
2022-09-23T19:31:34.324Z,100.00
2022-09-23T19:34:03.079Z,100.00
2022-09-23T19:36:34.895Z,100.00
2022-09-23T19:39:15.167Z,100.00
2022-09-23T19:41:41.726Z,100.00
2022-09-23T19:44:08.453Z,100.00
2022-09-23T19:46:37.212Z,100.00
2022-09-23T19:49:05.374Z,100.00
2022-09-23T19:51:34.099Z,100.00
2022-09-23T19:54:02.109Z,100.00
2022-09-23T19:56:29.836Z,100.00
2022-09-23T19:58:57.153Z,100.00
2022-09-23T20:01:25.169Z,100.00
2022-09-23T20:03:51.728Z,100.00
2022-09-23T20:06:18.353Z,100.00
2022-09-23T20:08:45.535Z,100.00
2022-09-23T20:11:15.022Z,100.00
2022-09-23T20:13:44.228Z,100.00
2022-09-23T20:16:13.640Z,100.00
2022-09-23T20:18:41.380Z,100.00
2022-09-23T20:21:14.213Z,100.00
2022-09-23T20:23:41.903Z,100.00
2022-09-23T20:26:27.676Z,100.00
2022-09-23T20:28:54.732Z,100.00
2022-09-23T20:31:22.988Z,100.00
2022-09-23T20:33:56.415Z,100.00
2022-09-23T20:36:22.998Z,100.00
2022-09-23T20:38:53.901Z,100.00
2022-09-23T20:41:21.154Z,100.00
2022-09-23T20:43:48.519Z,100.00
2022-09-23T20:46:16.378Z,100.00
2022-09-23T20:48:43.250Z,100.00
2022-09-23T20:51:10.237Z,100.00
2022-09-23T20:53:37.053Z,100.00
2022-09-23T20:56:05.949Z,100.00
2022-09-23T20:58:36.803Z,100.00
2022-09-23T21:01:11.067Z,100.00
2022-09-23T21:03:44.625Z,100.00
2022-09-23T21:06:13.927Z,100.00
2022-09-23T21:08:41.880Z,100.00
2022-09-23T21:11:12.140Z,100.00
2022-09-23T21:13:39.652Z,100.00
2022-09-23T21:16:10.755Z,100.00
2022-09-23T21:18:38.371Z,100.00
2022-09-23T21:21:06.021Z,100.00
2022-09-23T21:23:38.247Z,100.00
2022-09-23T21:26:11.062Z,100.00
2022-09-23T21:28:42.987Z,100.00
2022-09-23T21:31:34.637Z,100.00
2022-09-23T21:34:06.670Z,100.00
2022-09-23T21:36:37.388Z,100.00
2022-09-23T21:39:05.619Z,100.00
2022-09-23T21:41:33.198Z,100.00
2022-09-23T21:44:00.855Z,100.00
2022-09-23T21:46:28.515Z,100.00
2022-09-23T21:48:57.614Z,100.00
2022-09-23T21:51:30.199Z,100.00
2022-09-23T21:53:58.158Z,100.00
2022-09-23T21:56:27.103Z,100.00
2022-09-23T21:58:55.275Z,100.00
2022-09-23T22:01:24.355Z,100.00
2022-09-23T22:03:53.805Z,100.00
2022-09-23T22:06:23.253Z,100.00
2022-09-23T22:08:53.490Z,100.00
2022-09-23T22:11:41.697Z,100.00
2022-09-23T22:14:11.777Z,100.00
2022-09-23T22:16:39.543Z,100.00
2022-09-23T22:19:07.164Z,100.00
2022-09-23T22:21:36.625Z,100.00
2022-09-23T22:24:04.821Z,100.00
2022-09-23T22:26:33.962Z,100.00
2022-09-23T22:29:19.477Z,100.00
2022-09-23T22:32:04.567Z,100.00
2022-09-23T22:34:49.065Z,100.00
2022-09-23T22:37:18.944Z,100.00
2022-09-23T22:39:45.551Z,100.00
2022-09-23T22:42:15.599Z,100.00
2022-09-23T22:44:42.466Z,100.00
2022-09-23T22:47:10.192Z,100.00
2022-09-23T22:49:36.902Z,100.00
2022-09-23T22:52:07.015Z,100.00
2022-09-23T22:54:34.444Z,100.00
2022-09-23T22:57:03.468Z,100.00
2022-09-23T22:59:30.160Z,100.00
2022-09-23T23:01:57.241Z,100.00
2022-09-23T23:04:23.879Z,100.00
2022-09-23T23:06:51.208Z,100.00
2022-09-23T23:09:18.926Z,100.00
2022-09-23T23:11:45.832Z,100.00
2022-09-23T23:14:14.334Z,100.00
2022-09-23T23:16:40.960Z,100.00
2022-09-23T23:19:12.077Z,100.00
2022-09-23T23:21:40.589Z,100.00
2022-09-23T23:24:07.211Z,100.00
2022-09-23T23:26:34.486Z,100.00
2022-09-23T23:29:01.710Z,100.00
2022-09-23T23:31:29.174Z,100.00
2022-09-23T23:33:55.940Z,100.00
2022-09-23T23:36:23.370Z,100.00
2022-09-23T23:38:53.721Z,100.00
2022-09-23T23:41:22.783Z,100.00
2022-09-23T23:43:55.523Z,100.00
2022-09-23T23:46:25.393Z,100.00
2022-09-23T23:48:53.147Z,100.00
2022-09-23T23:51:20.013Z,100.00
2022-09-23T23:53:48.307Z,100.00
2022-09-23T23:56:18.237Z,100.00
2022-09-23T23:58:45.552Z,100.00
